createdAt,value
2022-08-09T00:02:34.118Z,4.40
2022-08-09T00:07:44.879Z,4.30
2022-08-09T00:12:51.664Z,4.10
2022-08-09T00:18:05.968Z,4.70
2022-08-09T00:23:54.643Z,4.50
2022-08-09T00:28:37.026Z,4.80
2022-08-09T00:33:50.626Z,5.80
2022-08-09T00:38:53.903Z,5.00
2022-08-09T00:44:11.235Z,4.90
2022-08-09T00:49:18.751Z,5.00
2022-08-09T00:54:35.267Z,4.40
2022-08-09T00:59:46.258Z,4.50
2022-08-09T01:05:02.685Z,5.10
2022-08-09T01:10:15.624Z,5.30
2022-08-09T01:15:24.142Z,4.20
2022-08-09T01:20:31.433Z,3.90
2022-08-09T01:25:41.994Z,4.80
2022-08-09T01:30:54.832Z,4.50
2022-08-09T01:36:04.516Z,4.00
2022-08-09T01:41:13.095Z,3.90
2022-08-09T01:46:18.253Z,3.80
2022-08-09T01:51:32.456Z,4.00
2022-08-09T01:56:39.359Z,3.50
2022-08-09T02:01:59.231Z,3.60
2022-08-09T02:07:08.280Z,4.10
2022-08-09T02:12:22.481Z,3.80
2022-08-09T02:18:00.573Z,3.80
2022-08-09T02:22:58.049Z,3.90
2022-08-09T02:28:09.716Z,3.60
2022-08-09T02:33:18.275Z,3.80
2022-08-09T02:38:28.594Z,4.40
2022-08-09T02:43:42.639Z,3.70
2022-08-09T02:49:01.354Z,3.40
2022-08-09T02:54:07.587Z,3.70
2022-08-09T02:59:16.045Z,4.50
2022-08-09T03:04:31.767Z,3.50
2022-08-09T03:09:36.060Z,3.90
2022-08-09T03:14:46.997Z,3.90
2022-08-09T03:19:52.818Z,4.30
2022-08-09T03:25:21.306Z,3.90
2022-08-09T03:30:33.033Z,4.10
2022-08-09T03:36:11.285Z,3.90
2022-08-09T03:40:59.338Z,4.10
2022-08-09T03:46:04.251Z,4.10
2022-08-09T03:51:57.701Z,3.90
2022-08-09T03:56:48.040Z,4.00
2022-08-09T04:01:59.080Z,3.60
2022-08-09T04:07:02.713Z,4.20
2022-08-09T04:12:11.926Z,3.60
2022-08-09T04:17:14.585Z,3.90
2022-08-09T04:22:18.620Z,4.30
2022-08-09T04:27:23.947Z,3.80
2022-08-09T04:32:33.797Z,4.10
2022-08-09T04:37:45.827Z,4.00
2022-08-09T04:42:49.263Z,3.70
2022-08-09T04:48:00.227Z,4.00
2022-08-09T04:53:13.309Z,4.10
2022-08-09T04:58:16.388Z,3.30
2022-08-09T05:03:41.033Z,3.60
2022-08-09T05:08:43.906Z,3.80
2022-08-09T05:13:50.101Z,3.70
2022-08-09T05:18:59.365Z,4.50
2022-08-09T05:24:04.077Z,4.60
2022-08-09T05:29:07.354Z,3.80
2022-08-09T05:34:20.499Z,3.80
2022-08-09T05:39:28.986Z,4.00
2022-08-09T05:44:34.614Z,3.00
2022-08-09T05:55:03.133Z,3.80
2022-08-09T06:00:10.982Z,3.60
2022-08-09T06:05:13.586Z,3.60
2022-08-09T06:10:18.063Z,3.60
2022-08-09T06:15:22.070Z,3.80
2022-08-09T06:20:24.613Z,3.50
2022-08-09T06:25:27.072Z,3.10
2022-08-09T06:30:29.529Z,3.20
2022-08-09T06:35:35.746Z,3.40
2022-08-09T06:40:55.037Z,3.20
2022-08-09T06:46:05.990Z,3.30
2022-08-09T06:51:12.941Z,3.20
2022-08-09T06:56:17.325Z,3.20
2022-08-09T07:01:21.537Z,3.10
2022-08-09T07:06:28.050Z,3.20
2022-08-09T07:11:45.572Z,3.10
2022-08-09T07:16:58.038Z,3.00
2022-08-09T07:22:01.015Z,2.90
2022-08-09T07:27:04.691Z,2.40
2022-08-09T07:32:23.515Z,3.20
2022-08-09T07:37:42.709Z,3.10
2022-08-09T07:42:51.478Z,3.00
2022-08-09T07:48:01.483Z,2.90
2022-08-09T07:54:06.552Z,2.40
2022-08-09T07:59:04.427Z,3.00
2022-08-09T08:04:15.092Z,3.30
2022-08-09T08:09:39.738Z,2.80
2022-08-09T08:14:40.439Z,3.20
2022-08-09T08:19:44.518Z,2.30
2022-08-09T08:24:50.936Z,2.50
2022-08-09T08:29:53.966Z,2.80
2022-08-09T08:34:59.279Z,2.50
2022-08-09T08:40:05.528Z,2.60
2022-08-09T08:45:13.545Z,2.60
2022-08-09T08:50:18.283Z,2.30
2022-08-09T09:00:29.998Z,2.40
2022-08-09T09:06:00.394Z,2.60
2022-08-09T09:11:03.784Z,2.40
2022-08-09T09:16:08.083Z,2.60
2022-08-09T09:21:10.788Z,2.30
2022-08-09T09:26:15.259Z,2.10
2022-08-09T09:32:03.960Z,2.30
2022-08-09T09:36:51.290Z,2.30
2022-08-09T09:41:58.534Z,2.00
2022-08-09T09:47:16.421Z,2.00
2022-08-09T09:52:36.450Z,2.20
2022-08-09T09:58:03.665Z,2.10
2022-08-09T10:03:09.091Z,2.30
2022-08-09T10:08:27.775Z,2.30
2022-08-09T10:13:43.039Z,2.50
2022-08-09T10:18:54.262Z,2.20
2022-08-09T10:24:01.401Z,1.90
2022-08-09T10:29:21.366Z,2.40
2022-08-09T10:34:32.785Z,2.00
2022-08-09T10:39:40.842Z,2.00
2022-08-09T10:45:17.014Z,2.10
2022-08-09T10:50:31.454Z,2.30
2022-08-09T10:55:58.340Z,2.20
2022-08-09T11:03:06.510Z,2.00
2022-08-09T11:06:23.444Z,2.10
2022-08-09T11:11:25.949Z,2.00
2022-08-09T11:16:36.267Z,2.30
2022-08-09T11:21:45.716Z,2.10
2022-08-09T11:27:00.175Z,2.00
2022-08-09T11:32:10.397Z,1.90
2022-08-09T11:37:31.250Z,2.00
2022-08-09T11:42:48.370Z,1.90
2022-08-09T11:47:54.631Z,1.70
2022-08-09T11:53:15.958Z,1.80
2022-08-09T11:58:32.783Z,1.90
2022-08-09T12:03:57.251Z,2.00
2022-08-09T12:09:03.578Z,1.80
2022-08-09T12:14:28.576Z,1.80
2022-08-09T12:19:33.676Z,1.50
2022-08-09T12:24:37.047Z,1.70
2022-08-09T12:30:02.019Z,1.70
2022-08-09T12:35:19.168Z,2.00
2022-08-09T12:40:27.262Z,2.10
2022-08-09T12:45:33.707Z,2.20
2022-08-09T12:50:41.280Z,2.10
2022-08-09T12:56:12.496Z,1.90
2022-08-09T13:01:12.300Z,1.90
2022-08-09T13:06:21.735Z,2.00
2022-08-09T13:11:29.119Z,1.90
2022-08-09T13:16:37.576Z,2.00
2022-08-09T13:22:36.962Z,1.90
2022-08-09T13:27:06.076Z,2.00
2022-08-09T13:32:16.610Z,1.90
2022-08-09T13:37:24.753Z,1.70
2022-08-09T13:42:45.992Z,1.80
2022-08-09T13:47:51.878Z,1.50
2022-08-09T13:52:57.139Z,1.70
2022-08-09T13:58:00.533Z,1.60
2022-08-09T14:04:03.653Z,1.70
2022-08-09T14:08:26.812Z,1.80
2022-08-09T14:14:15.287Z,1.70
2022-08-09T14:18:53.455Z,1.40
2022-08-09T14:24:01.123Z,1.30
2022-08-09T14:30:15.192Z,1.90
2022-08-09T14:34:40.942Z,1.50
2022-08-09T14:39:47.854Z,1.50
2022-08-09T14:44:59.491Z,1.50
2022-08-09T14:50:04.664Z,1.30
2022-08-09T14:55:08.185Z,1.50
2022-08-09T15:00:11.874Z,1.50
2022-08-09T15:05:15.964Z,1.50
2022-08-09T15:10:19.429Z,1.20
2022-08-09T15:15:23.619Z,1.20
2022-08-09T15:21:55.998Z,1.20
2022-08-09T15:25:49.100Z,1.20
2022-08-09T15:31:01.729Z,1.20
2022-08-09T15:36:11.330Z,1.30
2022-08-09T15:41:20.006Z,1.40
2022-08-09T15:46:32.395Z,1.30
2022-08-09T15:52:02.829Z,1.60
2022-08-09T15:57:00.136Z,1.60
2022-08-09T16:02:03.436Z,1.50
2022-08-09T16:07:08.142Z,1.50
2022-08-09T16:12:11.606Z,1.40
2022-08-09T16:17:16.927Z,1.30
2022-08-09T16:22:19.845Z,1.40
2022-08-09T16:27:23.012Z,1.70
2022-08-09T16:32:49.752Z,1.60
2022-08-09T16:37:56.967Z,1.50
2022-08-09T16:43:03.053Z,1.60
2022-08-09T16:53:34.159Z,1.60
2022-08-09T16:58:39.706Z,1.80
2022-08-09T17:03:45.130Z,1.90
2022-08-09T17:08:58.965Z,2.00
2022-08-09T17:14:08.576Z,2.20
2022-08-09T17:20:12.601Z,2.00
2022-08-09T17:25:03.754Z,1.90
2022-08-09T17:30:14.215Z,2.20
2022-08-09T17:35:17.392Z,2.00
2022-08-09T17:40:20.061Z,2.00
2022-08-09T17:45:37.578Z,2.20
2022-08-09T17:50:56.486Z,2.30
2022-08-09T17:56:08.064Z,2.30
2022-08-09T18:01:22.366Z,2.10
2022-08-09T18:06:30.846Z,2.30
2022-08-09T18:12:04.991Z,2.30
2022-08-09T18:16:58.505Z,2.30
2022-08-09T18:22:01.043Z,2.50
2022-08-09T18:27:03.810Z,2.30
2022-08-09T18:32:09.786Z,2.40
2022-08-09T18:37:47.890Z,2.60
2022-08-09T18:42:35.127Z,2.90
2022-08-09T18:47:38.979Z,3.10
2022-08-09T18:52:43.023Z,3.10
2022-08-09T18:57:45.697Z,2.70
2022-08-09T19:02:50.963Z,3.40
2022-08-09T19:08:04.555Z,3.20
2022-08-09T19:13:18.004Z,3.10
2022-08-09T19:18:36.538Z,3.20
2022-08-09T19:24:36.156Z,3.20
2022-08-09T19:29:18.392Z,3.10
2022-08-09T19:34:24.746Z,3.70
2022-08-09T19:44:52.171Z,3.30
2022-08-09T19:50:08.382Z,3.10
2022-08-09T19:55:17.453Z,3.50
2022-08-09T20:00:22.019Z,3.80
2022-08-09T20:05:25.052Z,3.40
2022-08-09T20:10:36.194Z,3.30
2022-08-09T20:16:35.458Z,3.20
2022-08-09T20:21:02.223Z,3.70
2022-08-09T20:26:04.997Z,3.80
2022-08-09T20:31:09.469Z,3.70
2022-08-09T20:36:16.260Z,3.60
2022-08-09T20:41:32.464Z,3.20
2022-08-09T20:46:43.226Z,3.80
2022-08-09T20:51:50.564Z,3.70
2022-08-09T20:56:54.134Z,3.50
2022-08-09T21:01:57.205Z,3.50
2022-08-09T21:06:59.738Z,5.00
2022-08-09T21:18:20.657Z,4.10
2022-08-09T21:22:43.141Z,3.80
2022-08-09T21:27:52.119Z,4.20
2022-08-09T21:32:55.586Z,4.50
2022-08-09T21:38:00.459Z,4.20
2022-08-09T21:43:04.198Z,4.10
2022-08-09T21:53:24.059Z,4.90
2022-08-09T21:58:33.520Z,4.90
2022-08-09T22:03:48.532Z,4.90
2022-08-09T22:09:01.074Z,4.70
2022-08-09T22:14:03.597Z,4.90
2022-08-09T22:19:57.746Z,4.70
2022-08-09T22:24:28.527Z,4.80
2022-08-09T22:29:38.535Z,4.60
2022-08-09T22:35:02.695Z,4.80
2022-08-09T22:40:10.661Z,5.10
2022-08-09T22:48:11.730Z,5.00
2022-08-09T22:50:52.644Z,4.70
2022-08-09T22:56:29.375Z,5.20
2022-08-09T23:01:18.236Z,5.80
2022-08-09T23:06:32.573Z,7.50
2022-08-09T23:11:38.514Z,7.30
2022-08-09T23:16:40.895Z,5.80
2022-08-09T23:21:43.340Z,6.40
2022-08-09T23:26:45.992Z,5.50
2022-08-09T23:31:52.519Z,4.90
2022-08-09T23:36:56.734Z,5.60
2022-08-09T23:41:59.343Z,5.80
2022-08-09T23:47:02.121Z,5.90
2022-08-09T23:52:04.957Z,5.60
2022-08-09T23:57:07.401Z,5.50
